sensor_id;sensor_type;location;lat;lon;timestamp;P1;durP1;ratioP1;P2;durP2;ratioP2
4428;SDS011;2227;47.810;8.810;2022-08-21T04:30:24;2.72;;;1.48;;
4428;SDS011;2227;47.810;8.810;2022-08-21T04:32:54;4.68;;;1.50;;
4428;SDS011;2227;47.810;8.810;2022-08-21T04:35:22;3.30;;;1.30;;
4428;SDS011;2227;47.810;8.810;2022-08-21T04:37:50;3.58;;;1.55;;
4428;SDS011;2227;47.810;8.810;2022-08-21T04:40:18;4.32;;;1.48;;
4428;SDS011;2227;47.810;8.810;2022-08-21T04:42:47;2.67;;;1.38;;
4428;SDS011;2227;47.810;8.810;2022-08-21T04:45:17;3.58;;;1.73;;
4428;SDS011;2227;47.810;8.810;2022-08-21T04:48:04;2.38;;;1.45;;
4428;SDS011;2227;47.810;8.810;2022-08-21T04:50:59;3.10;;;1.42;;
4428;SDS011;2227;47.810;8.810;2022-08-21T04:58:48;3.85;;;1.35;;
4428;SDS011;2227;47.810;8.810;2022-08-21T05:01:17;3.03;;;1.33;;
4428;SDS011;2227;47.810;8.810;2022-08-21T05:03:48;3.00;;;1.65;;
4428;SDS011;2227;47.810;8.810;2022-08-21T05:06:16;3.70;;;1.38;;
4428;SDS011;2227;47.810;8.810;2022-08-21T05:08:44;3.40;;;1.38;;
4428;SDS011;2227;47.810;8.810;2022-08-21T05:11:12;2.33;;;1.30;;
4428;SDS011;2227;47.810;8.810;2022-08-21T05:13:39;2.33;;;1.08;;
4428;SDS011;2227;47.810;8.810;2022-08-21T05:16:09;2.13;;;1.27;;
4428;SDS011;2227;47.810;8.810;2022-08-21T05:18:36;2.58;;;1.58;;
4428;SDS011;2227;47.810;8.810;2022-08-21T05:21:02;3.63;;;1.42;;
4428;SDS011;2227;47.810;8.810;2022-08-21T05:23:30;2.92;;;1.77;;
4428;SDS011;2227;47.810;8.810;2022-08-21T05:25:57;5.80;;;1.70;;
4428;SDS011;2227;47.810;8.810;2022-08-21T05:28:24;3.13;;;1.60;;
4428;SDS011;2227;47.810;8.810;2022-08-21T05:30:52;2.58;;;1.35;;
4428;SDS011;2227;47.810;8.810;2022-08-21T05:33:19;1.73;;;1.20;;
4428;SDS011;2227;47.810;8.810;2022-08-21T05:35:48;4.28;;;1.58;;
4428;SDS011;2227;47.810;8.810;2022-08-21T05:38:17;2.40;;;1.13;;
4428;SDS011;2227;47.810;8.810;2022-08-21T05:40:45;2.50;;;1.40;;
4428;SDS011;2227;47.810;8.810;2022-08-21T05:43:12;2.70;;;1.25;;
4428;SDS011;2227;47.810;8.810;2022-08-21T05:45:40;3.10;;;1.80;;
4428;SDS011;2227;47.810;8.810;2022-08-21T05:50:39;3.70;;;1.40;;
4428;SDS011;2227;47.810;8.810;2022-08-21T05:53:06;2.55;;;1.30;;
4428;SDS011;2227;47.810;8.810;2022-08-21T05:55:35;2.33;;;1.33;;
4428;SDS011;2227;47.810;8.810;2022-08-21T05:58:07;2.83;;;1.70;;
4428;SDS011;2227;47.810;8.810;2022-08-21T06:00:34;4.43;;;1.50;;
4428;SDS011;2227;47.810;8.810;2022-08-21T06:03:01;2.03;;;1.20;;
4428;SDS011;2227;47.810;8.810;2022-08-21T06:05:28;4.93;;;1.70;;
4428;SDS011;2227;47.810;8.810;2022-08-21T06:08:02;6.30;;;2.38;;
4428;SDS011;2227;47.810;8.810;2022-08-21T06:10:30;3.90;;;2.00;;
4428;SDS011;2227;47.810;8.810;2022-08-21T06:12:57;2.72;;;1.35;;
4428;SDS011;2227;47.810;8.810;2022-08-21T06:15:24;4.20;;;2.00;;
4428;SDS011;2227;47.810;8.810;2022-08-21T06:17:52;3.65;;;2.00;;
4428;SDS011;2227;47.810;8.810;2022-08-21T06:20:19;2.88;;;1.60;;
4428;SDS011;2227;47.810;8.810;2022-08-21T06:22:47;3.03;;;1.80;;
4428;SDS011;2227;47.810;8.810;2022-08-21T06:25:13;3.85;;;2.03;;
4428;SDS011;2227;47.810;8.810;2022-08-21T06:27:40;3.22;;;1.70;;
4428;SDS011;2227;47.810;8.810;2022-08-21T06:30:07;3.22;;;1.63;;
4428;SDS011;2227;47.810;8.810;2022-08-21T06:32:35;3.08;;;1.85;;
4428;SDS011;2227;47.810;8.810;2022-08-21T06:35:02;3.92;;;2.20;;
4428;SDS011;2227;47.810;8.810;2022-08-21T06:37:30;4.50;;;2.25;;
4428;SDS011;2227;47.810;8.810;2022-08-21T06:39:57;4.30;;;2.25;;
4428;SDS011;2227;47.810;8.810;2022-08-21T06:42:24;5.32;;;2.17;;
4428;SDS011;2227;47.810;8.810;2022-08-21T06:44:53;3.70;;;1.95;;
4428;SDS011;2227;47.810;8.810;2022-08-21T06:47:22;3.78;;;1.90;;
4428;SDS011;2227;47.810;8.810;2022-08-21T06:49:49;3.08;;;2.10;;
4428;SDS011;2227;47.810;8.810;2022-08-21T06:52:16;4.90;;;1.63;;
4428;SDS011;2227;47.810;8.810;2022-08-21T06:54:42;2.13;;;1.33;;
4428;SDS011;2227;47.810;8.810;2022-08-21T06:57:09;3.28;;;1.67;;
4428;SDS011;2227;47.810;8.810;2022-08-21T06:59:36;4.55;;;1.80;;
4428;SDS011;2227;47.810;8.810;2022-08-21T07:02:03;4.15;;;1.90;;
4428;SDS011;2227;47.810;8.810;2022-08-21T07:04:30;4.65;;;2.75;;
4428;SDS011;2227;47.810;8.810;2022-08-21T07:06:57;4.35;;;2.75;;
4428;SDS011;2227;47.810;8.810;2022-08-21T07:09:24;4.18;;;2.80;;
4428;SDS011;2227;47.810;8.810;2022-08-21T07:11:52;4.28;;;2.70;;
4428;SDS011;2227;47.810;8.810;2022-08-21T07:14:21;4.07;;;2.65;;
4428;SDS011;2227;47.810;8.810;2022-08-21T07:16:48;5.45;;;2.95;;
4428;SDS011;2227;47.810;8.810;2022-08-21T07:19:17;4.88;;;2.90;;
4428;SDS011;2227;47.810;8.810;2022-08-21T07:21:44;3.80;;;2.45;;
4428;SDS011;2227;47.810;8.810;2022-08-21T07:24:11;4.07;;;2.00;;
4428;SDS011;2227;47.810;8.810;2022-08-21T07:26:38;4.35;;;2.70;;
4428;SDS011;2227;47.810;8.810;2022-08-21T07:29:05;4.82;;;2.75;;
4428;SDS011;2227;47.810;8.810;2022-08-21T07:31:32;4.25;;;2.95;;
4428;SDS011;2227;47.810;8.810;2022-08-21T07:33:59;6.47;;;3.67;;
4428;SDS011;2227;47.810;8.810;2022-08-21T07:36:25;6.65;;;4.13;;
4428;SDS011;2227;47.810;8.810;2022-08-21T07:38:52;5.28;;;3.97;;
4428;SDS011;2227;47.810;8.810;2022-08-21T07:41:21;5.00;;;3.70;;
4428;SDS011;2227;47.810;8.810;2022-08-21T07:43:50;6.15;;;4.22;;
4428;SDS011;2227;47.810;8.810;2022-08-21T07:46:18;6.00;;;4.25;;
4428;SDS011;2227;47.810;8.810;2022-08-21T07:48:45;5.20;;;3.70;;
4428;SDS011;2227;47.810;8.810;2022-08-21T07:51:14;4.53;;;3.03;;
4428;SDS011;2227;47.810;8.810;2022-08-21T07:53:46;5.85;;;4.15;;
4428;SDS011;2227;47.810;8.810;2022-08-21T07:56:17;5.88;;;4.93;;
4428;SDS011;2227;47.810;8.810;2022-08-21T07:58:44;7.10;;;5.72;;
4428;SDS011;2227;47.810;8.810;2022-08-21T08:01:11;8.10;;;5.57;;
4428;SDS011;2227;47.810;8.810;2022-08-21T08:03:39;7.85;;;5.50;;
4428;SDS011;2227;47.810;8.810;2022-08-21T08:06:06;6.93;;;5.30;;
4428;SDS011;2227;47.810;8.810;2022-08-21T08:08:38;6.82;;;5.05;;
4428;SDS011;2227;47.810;8.810;2022-08-21T08:11:07;7.95;;;5.97;;
4428;SDS011;2227;47.810;8.810;2022-08-21T08:13:41;6.50;;;4.53;;
4428;SDS011;2227;47.810;8.810;2022-08-21T08:16:09;6.10;;;4.40;;
4428;SDS011;2227;47.810;8.810;2022-08-21T08:18:36;4.88;;;3.80;;
4428;SDS011;2227;47.810;8.810;2022-08-21T08:21:03;6.80;;;3.88;;
4428;SDS011;2227;47.810;8.810;2022-08-21T08:23:31;4.95;;;3.70;;
4428;SDS011;2227;47.810;8.810;2022-08-21T08:25:58;5.53;;;3.72;;
4428;SDS011;2227;47.810;8.810;2022-08-21T08:28:25;5.15;;;3.95;;
4428;SDS011;2227;47.810;8.810;2022-08-21T08:30:53;4.78;;;3.13;;
4428;SDS011;2227;47.810;8.810;2022-08-21T08:33:20;3.88;;;3.13;;
4428;SDS011;2227;47.810;8.810;2022-08-21T08:35:48;4.10;;;3.00;;
4428;SDS011;2227;47.810;8.810;2022-08-21T08:38:20;4.07;;;2.50;;
4428;SDS011;2227;47.810;8.810;2022-08-21T08:43:45;4.22;;;3.00;;
4428;SDS011;2227;47.810;8.810;2022-08-21T08:46:19;3.42;;;2.20;;
4428;SDS011;2227;47.810;8.810;2022-08-21T08:49:39;4.20;;;2.20;;
4428;SDS011;2227;47.810;8.810;2022-08-21T08:51:46;4.30;;;2.80;;
4428;SDS011;2227;47.810;8.810;2022-08-21T08:54:25;2.97;;;2.00;;
4428;SDS011;2227;47.810;8.810;2022-08-21T08:57:09;4.82;;;3.00;;
4428;SDS011;2227;47.810;8.810;2022-08-21T08:59:43;3.60;;;2.67;;
4428;SDS011;2227;47.810;8.810;2022-08-21T09:02:13;4.00;;;2.75;;
4428;SDS011;2227;47.810;8.810;2022-08-21T09:04:42;4.13;;;2.67;;
4428;SDS011;2227;47.810;8.810;2022-08-21T09:10:04;4.10;;;2.60;;
4428;SDS011;2227;47.810;8.810;2022-08-21T09:12:52;3.13;;;2.28;;
4428;SDS011;2227;47.810;8.810;2022-08-21T09:27:10;2.35;;;1.60;;
4428;SDS011;2227;47.810;8.810;2022-08-21T09:29:41;2.63;;;2.00;;
4428;SDS011;2227;47.810;8.810;2022-08-21T09:32:16;3.28;;;2.33;;
4428;SDS011;2227;47.810;8.810;2022-08-21T09:37:24;3.58;;;2.25;;
4428;SDS011;2227;47.810;8.810;2022-08-21T09:39:53;3.30;;;1.95;;
4428;SDS011;2227;47.810;8.810;2022-08-21T09:42:22;3.45;;;1.83;;
4428;SDS011;2227;47.810;8.810;2022-08-21T09:45:00;4.40;;;2.15;;
4428;SDS011;2227;47.810;8.810;2022-08-21T09:47:48;4.03;;;1.70;;
4428;SDS011;2227;47.810;8.810;2022-08-21T09:50:23;4.18;;;2.08;;
4428;SDS011;2227;47.810;8.810;2022-08-21T09:52:55;4.95;;;1.65;;
4428;SDS011;2227;47.810;8.810;2022-08-21T09:58:37;3.83;;;2.10;;
4428;SDS011;2227;47.810;8.810;2022-08-21T10:01:05;2.58;;;1.73;;
4428;SDS011;2227;47.810;8.810;2022-08-21T10:03:38;3.13;;;1.90;;
4428;SDS011;2227;47.810;8.810;2022-08-21T10:06:06;2.58;;;1.50;;
4428;SDS011;2227;47.810;8.810;2022-08-21T10:08:39;4.97;;;1.80;;
4428;SDS011;2227;47.810;8.810;2022-08-21T10:11:08;2.97;;;1.58;;
4428;SDS011;2227;47.810;8.810;2022-08-21T10:13:41;4.88;;;1.95;;
4428;SDS011;2227;47.810;8.810;2022-08-21T10:27:10;3.07;;;1.53;;
4428;SDS011;2227;47.810;8.810;2022-08-21T10:32:38;3.63;;;1.70;;
4428;SDS011;2227;47.810;8.810;2022-08-21T10:46:46;2.28;;;1.17;;
4428;SDS011;2227;47.810;8.810;2022-08-21T10:52:28;3.70;;;1.05;;
4428;SDS011;2227;47.810;8.810;2022-08-21T11:05:51;2.33;;;1.10;;
4428;SDS011;2227;47.810;8.810;2022-08-21T11:08:31;2.25;;;1.08;;
4428;SDS011;2227;47.810;8.810;2022-08-21T11:14:02;1.60;;;0.95;;
4428;SDS011;2227;47.810;8.810;2022-08-21T11:16:41;2.00;;;0.80;;
4428;SDS011;2227;47.810;8.810;2022-08-21T11:22:31;2.10;;;0.90;;
4428;SDS011;2227;47.810;8.810;2022-08-21T11:25:21;1.55;;;0.73;;
4428;SDS011;2227;47.810;8.810;2022-08-21T11:28:06;1.90;;;1.00;;
4428;SDS011;2227;47.810;8.810;2022-08-21T11:42:27;1.50;;;1.00;;
4428;SDS011;2227;47.810;8.810;2022-08-21T11:47:58;1.60;;;0.95;;
4428;SDS011;2227;47.810;8.810;2022-08-21T11:50:38;1.70;;;0.93;;
4428;SDS011;2227;47.810;8.810;2022-08-21T11:53:09;1.70;;;0.88;;
4428;SDS011;2227;47.810;8.810;2022-08-21T11:55:44;1.63;;;0.90;;
4428;SDS011;2227;47.810;8.810;2022-08-21T11:58:37;2.40;;;1.17;;
4428;SDS011;2227;47.810;8.810;2022-08-21T12:01:11;1.60;;;0.70;;
4428;SDS011;2227;47.810;8.810;2022-08-21T12:03:44;1.17;;;0.77;;
4428;SDS011;2227;47.810;8.810;2022-08-21T12:06:41;1.63;;;0.80;;
4428;SDS011;2227;47.810;8.810;2022-08-21T12:09:31;2.42;;;1.10;;
4428;SDS011;2227;47.810;8.810;2022-08-21T12:15:03;1.90;;;0.95;;
4428;SDS011;2227;47.810;8.810;2022-08-21T12:17:53;2.78;;;0.88;;
4428;SDS011;2227;47.810;8.810;2022-08-21T12:20:41;1.63;;;1.02;;
4428;SDS011;2227;47.810;8.810;2022-08-21T12:23:24;4.57;;;1.10;;
4428;SDS011;2227;47.810;8.810;2022-08-21T12:28:29;1.65;;;1.00;;
4428;SDS011;2227;47.810;8.810;2022-08-21T12:30:57;2.33;;;1.00;;
4428;SDS011;2227;47.810;8.810;2022-08-21T12:35:52;2.13;;;0.95;;
4428;SDS011;2227;47.810;8.810;2022-08-21T12:41:34;4.32;;;1.05;;
4428;SDS011;2227;47.810;8.810;2022-08-21T12:44:12;3.35;;;1.02;;
4428;SDS011;2227;47.810;8.810;2022-08-21T12:46:45;1.60;;;0.90;;
4428;SDS011;2227;47.810;8.810;2022-08-21T12:49:18;1.50;;;0.90;;
4428;SDS011;2227;47.810;8.810;2022-08-21T12:54:38;2.70;;;1.00;;
4428;SDS011;2227;47.810;8.810;2022-08-21T12:57:07;1.67;;;0.93;;
4428;SDS011;2227;47.810;8.810;2022-08-21T12:59:42;2.13;;;0.90;;
4428;SDS011;2227;47.810;8.810;2022-08-21T13:02:19;1.85;;;0.98;;
4428;SDS011;2227;47.810;8.810;2022-08-21T13:04:51;1.17;;;0.73;;
4428;SDS011;2227;47.810;8.810;2022-08-21T13:07:28;2.13;;;0.80;;
4428;SDS011;2227;47.810;8.810;2022-08-21T13:13:00;2.20;;;0.85;;
4428;SDS011;2227;47.810;8.810;2022-08-21T13:15:38;2.20;;;1.10;;
4428;SDS011;2227;47.810;8.810;2022-08-21T13:18:23;1.23;;;0.70;;
4428;SDS011;2227;47.810;8.810;2022-08-21T13:21:09;1.23;;;0.88;;
4428;SDS011;2227;47.810;8.810;2022-08-21T13:23:38;1.90;;;0.93;;
4428;SDS011;2227;47.810;8.810;2022-08-21T13:26:16;2.88;;;1.00;;
4428;SDS011;2227;47.810;8.810;2022-08-21T13:28:45;2.45;;;0.80;;
4428;SDS011;2227;47.810;8.810;2022-08-21T13:31:18;1.98;;;0.80;;
4428;SDS011;2227;47.810;8.810;2022-08-21T13:33:50;1.70;;;0.90;;
4428;SDS011;2227;47.810;8.810;2022-08-21T13:36:26;1.40;;;0.80;;
4428;SDS011;2227;47.810;8.810;2022-08-21T13:38:58;2.03;;;0.90;;
4428;SDS011;2227;47.810;8.810;2022-08-21T13:41:29;2.30;;;1.00;;
4428;SDS011;2227;47.810;8.810;2022-08-21T13:44:04;3.00;;;0.95;;
4428;SDS011;2227;47.810;8.810;2022-08-21T13:46:45;1.95;;;0.90;;
4428;SDS011;2227;47.810;8.810;2022-08-21T13:49:16;1.65;;;0.80;;
4428;SDS011;2227;47.810;8.810;2022-08-21T13:51:45;1.27;;;0.80;;
4428;SDS011;2227;47.810;8.810;2022-08-21T13:54:14;2.70;;;1.10;;
4428;SDS011;2227;47.810;8.810;2022-08-21T13:56:47;1.85;;;0.88;;
4428;SDS011;2227;47.810;8.810;2022-08-21T13:59:28;3.15;;;0.93;;
4428;SDS011;2227;47.810;8.810;2022-08-21T14:01:58;1.42;;;0.80;;
4428;SDS011;2227;47.810;8.810;2022-08-21T14:04:36;2.03;;;1.00;;
4428;SDS011;2227;47.810;8.810;2022-08-21T14:07:34;2.92;;;1.08;;
4428;SDS011;2227;47.810;8.810;2022-08-21T14:10:19;3.35;;;1.00;;
4428;SDS011;2227;47.810;8.810;2022-08-21T14:12:52;2.70;;;1.00;;
4428;SDS011;2227;47.810;8.810;2022-08-21T14:15:23;2.17;;;1.00;;
4428;SDS011;2227;47.810;8.810;2022-08-21T14:17:55;1.65;;;1.10;;
4428;SDS011;2227;47.810;8.810;2022-08-21T14:20:41;2.17;;;0.80;;
4428;SDS011;2227;47.810;8.810;2022-08-21T14:23:08;2.75;;;1.08;;
4428;SDS011;2227;47.810;8.810;2022-08-21T14:25:40;2.22;;;1.02;;
4428;SDS011;2227;47.810;8.810;2022-08-21T14:28:22;2.00;;;0.93;;
4428;SDS011;2227;47.810;8.810;2022-08-21T14:30:54;2.85;;;1.08;;
4428;SDS011;2227;47.810;8.810;2022-08-21T14:33:24;1.27;;;0.70;;
4428;SDS011;2227;47.810;8.810;2022-08-21T14:35:57;2.03;;;1.08;;
4428;SDS011;2227;47.810;8.810;2022-08-21T14:38:25;3.88;;;1.13;;
4428;SDS011;2227;47.810;8.810;2022-08-21T14:40:55;1.70;;;0.70;;
4428;SDS011;2227;47.810;8.810;2022-08-21T14:43:25;1.52;;;1.00;;
4428;SDS011;2227;47.810;8.810;2022-08-21T14:45:53;2.25;;;1.20;;
4428;SDS011;2227;47.810;8.810;2022-08-21T14:48:21;1.52;;;0.95;;
4428;SDS011;2227;47.810;8.810;2022-08-21T14:50:48;3.85;;;1.00;;
4428;SDS011;2227;47.810;8.810;2022-08-21T14:53:15;1.77;;;1.10;;
4428;SDS011;2227;47.810;8.810;2022-08-21T14:55:42;2.22;;;0.90;;
4428;SDS011;2227;47.810;8.810;2022-08-21T14:58:27;2.00;;;0.85;;
4428;SDS011;2227;47.810;8.810;2022-08-21T15:00:54;2.60;;;1.10;;
4428;SDS011;2227;47.810;8.810;2022-08-21T15:03:24;4.10;;;1.10;;
4428;SDS011;2227;47.810;8.810;2022-08-21T15:05:51;2.58;;;0.90;;
4428;SDS011;2227;47.810;8.810;2022-08-21T15:08:18;2.03;;;1.00;;
4428;SDS011;2227;47.810;8.810;2022-08-21T15:10:45;3.15;;;1.13;;
4428;SDS011;2227;47.810;8.810;2022-08-21T15:13:32;1.65;;;1.00;;
4428;SDS011;2227;47.810;8.810;2022-08-21T15:15:59;2.35;;;1.00;;
4428;SDS011;2227;47.810;8.810;2022-08-21T15:18:27;2.58;;;1.20;;
4428;SDS011;2227;47.810;8.810;2022-08-21T15:20:56;2.35;;;1.10;;
4428;SDS011;2227;47.810;8.810;2022-08-21T15:23:23;2.63;;;1.10;;
4428;SDS011;2227;47.810;8.810;2022-08-21T15:25:50;1.88;;;0.90;;
4428;SDS011;2227;47.810;8.810;2022-08-21T15:28:18;2.05;;;0.93;;
4428;SDS011;2227;47.810;8.810;2022-08-21T15:30:46;2.33;;;0.82;;
4428;SDS011;2227;47.810;8.810;2022-08-21T15:33:14;2.47;;;1.00;;
4428;SDS011;2227;47.810;8.810;2022-08-21T15:35:41;1.67;;;0.90;;
4428;SDS011;2227;47.810;8.810;2022-08-21T15:38:07;2.80;;;1.20;;
4428;SDS011;2227;47.810;8.810;2022-08-21T15:40:36;2.47;;;1.10;;
4428;SDS011;2227;47.810;8.810;2022-08-21T15:43:29;2.13;;;1.05;;
4428;SDS011;2227;47.810;8.810;2022-08-21T15:45:58;3.72;;;1.20;;
4428;SDS011;2227;47.810;8.810;2022-08-21T15:48:25;2.53;;;1.10;;
4428;SDS011;2227;47.810;8.810;2022-08-21T15:50:53;1.83;;;1.10;;
4428;SDS011;2227;47.810;8.810;2022-08-21T15:53:19;1.65;;;0.90;;
4428;SDS011;2227;47.810;8.810;2022-08-21T15:55:46;2.38;;;1.38;;
4428;SDS011;2227;47.810;8.810;2022-08-21T15:58:14;2.70;;;1.10;;
4428;SDS011;2227;47.810;8.810;2022-08-21T16:00:42;1.83;;;0.80;;
4428;SDS011;2227;47.810;8.810;2022-08-21T16:03:11;3.53;;;1.05;;
4428;SDS011;2227;47.810;8.810;2022-08-21T16:05:43;1.73;;;0.90;;
4428;SDS011;2227;47.810;8.810;2022-08-21T16:08:11;1.90;;;1.00;;
4428;SDS011;2227;47.810;8.810;2022-08-21T16:10:38;1.73;;;1.02;;
4428;SDS011;2227;47.810;8.810;2022-08-21T16:13:07;1.95;;;0.80;;
4428;SDS011;2227;47.810;8.810;2022-08-21T16:15:40;2.45;;;0.95;;
4428;SDS011;2227;47.810;8.810;2022-08-21T16:18:07;2.83;;;1.17;;
4428;SDS011;2227;47.810;8.810;2022-08-21T16:20:36;2.22;;;1.00;;
4428;SDS011;2227;47.810;8.810;2022-08-21T16:23:02;2.00;;;1.02;;
4428;SDS011;2227;47.810;8.810;2022-08-21T16:25:29;2.42;;;0.90;;
4428;SDS011;2227;47.810;8.810;2022-08-21T16:27:59;1.40;;;0.90;;
4428;SDS011;2227;47.810;8.810;2022-08-21T16:30:28;3.40;;;1.10;;
4428;SDS011;2227;47.810;8.810;2022-08-21T16:32:55;2.05;;;1.10;;
4428;SDS011;2227;47.810;8.810;2022-08-21T16:35:22;1.83;;;0.90;;
4428;SDS011;2227;47.810;8.810;2022-08-21T16:37:50;2.25;;;1.02;;
4428;SDS011;2227;47.810;8.810;2022-08-21T16:40:18;2.15;;;1.23;;
4428;SDS011;2227;47.810;8.810;2022-08-21T16:42:48;1.77;;;1.02;;
4428;SDS011;2227;47.810;8.810;2022-08-21T16:45:16;2.47;;;1.02;;
4428;SDS011;2227;47.810;8.810;2022-08-21T16:47:45;2.40;;;1.00;;
4428;SDS011;2227;47.810;8.810;2022-08-21T16:50:13;2.78;;;1.00;;
4428;SDS011;2227;47.810;8.810;2022-08-21T16:52:42;2.95;;;1.25;;
4428;SDS011;2227;47.810;8.810;2022-08-21T16:55:09;3.05;;;1.27;;
4428;SDS011;2227;47.810;8.810;2022-08-21T16:57:36;1.80;;;0.90;;
4428;SDS011;2227;47.810;8.810;2022-08-21T17:00:04;2.95;;;0.98;;
4428;SDS011;2227;47.810;8.810;2022-08-21T17:02:36;2.28;;;1.17;;
4428;SDS011;2227;47.810;8.810;2022-08-21T17:05:06;2.45;;;0.90;;
4428;SDS011;2227;47.810;8.810;2022-08-21T17:07:39;2.80;;;1.15;;
4428;SDS011;2227;47.810;8.810;2022-08-21T17:10:07;1.65;;;0.80;;
4428;SDS011;2227;47.810;8.810;2022-08-21T17:12:35;4.18;;;1.17;;
4428;SDS011;2227;47.810;8.810;2022-08-21T17:15:09;3.40;;;1.05;;
4428;SDS011;2227;47.810;8.810;2022-08-21T17:17:46;2.08;;;1.00;;
4428;SDS011;2227;47.810;8.810;2022-08-21T17:20:13;2.70;;;1.40;;
4428;SDS011;2227;47.810;8.810;2022-08-21T17:22:40;4.25;;;1.05;;
4428;SDS011;2227;47.810;8.810;2022-08-21T17:25:08;3.20;;;1.27;;
4428;SDS011;2227;47.810;8.810;2022-08-21T17:27:35;2.78;;;1.17;;
4428;SDS011;2227;47.810;8.810;2022-08-21T17:30:03;2.53;;;1.20;;
4428;SDS011;2227;47.810;8.810;2022-08-21T17:32:31;2.53;;;1.27;;
4428;SDS011;2227;47.810;8.810;2022-08-21T17:34:58;2.08;;;0.90;;
4428;SDS011;2227;47.810;8.810;2022-08-21T17:37:25;2.15;;;0.90;;
4428;SDS011;2227;47.810;8.810;2022-08-21T17:39:54;2.60;;;1.05;;
4428;SDS011;2227;47.810;8.810;2022-08-21T17:42:22;2.85;;;1.10;;
4428;SDS011;2227;47.810;8.810;2022-08-21T17:44:50;2.53;;;1.27;;
4428;SDS011;2227;47.810;8.810;2022-08-21T17:47:17;3.00;;;1.10;;
4428;SDS011;2227;47.810;8.810;2022-08-21T17:49:44;3.08;;;1.20;;
4428;SDS011;2227;47.810;8.810;2022-08-21T17:52:11;2.92;;;1.40;;
4428;SDS011;2227;47.810;8.810;2022-08-21T17:54:38;2.50;;;1.10;;
4428;SDS011;2227;47.810;8.810;2022-08-21T17:57:06;1.95;;;1.10;;
4428;SDS011;2227;47.810;8.810;2022-08-21T17:59:38;2.35;;;1.00;;
4428;SDS011;2227;47.810;8.810;2022-08-21T18:02:05;2.53;;;0.93;;
4428;SDS011;2227;47.810;8.810;2022-08-21T18:04:44;3.00;;;1.27;;
4428;SDS011;2227;47.810;8.810;2022-08-21T18:07:16;2.80;;;1.30;;
4428;SDS011;2227;47.810;8.810;2022-08-21T18:09:58;3.47;;;1.02;;
4428;SDS011;2227;47.810;8.810;2022-08-21T18:12:26;2.28;;;1.20;;
4428;SDS011;2227;47.810;8.810;2022-08-21T18:14:53;3.15;;;1.20;;
4428;SDS011;2227;47.810;8.810;2022-08-21T18:17:20;3.33;;;2.10;;
4428;SDS011;2227;47.810;8.810;2022-08-21T18:19:49;1.65;;;1.00;;
4428;SDS011;2227;47.810;8.810;2022-08-21T18:22:16;2.45;;;0.90;;
4428;SDS011;2227;47.810;8.810;2022-08-21T18:24:43;3.33;;;1.23;;
4428;SDS011;2227;47.810;8.810;2022-08-21T18:27:11;2.10;;;1.17;;
4428;SDS011;2227;47.810;8.810;2022-08-21T18:29:40;2.38;;;1.20;;
4428;SDS011;2227;47.810;8.810;2022-08-21T18:32:12;3.10;;;1.23;;
4428;SDS011;2227;47.810;8.810;2022-08-21T18:34:57;3.20;;;1.38;;
4428;SDS011;2227;47.810;8.810;2022-08-21T18:37:29;2.70;;;0.93;;
4428;SDS011;2227;47.810;8.810;2022-08-21T18:39:57;1.67;;;1.10;;
4428;SDS011;2227;47.810;8.810;2022-08-21T18:42:24;4.53;;;1.52;;
4428;SDS011;2227;47.810;8.810;2022-08-21T18:44:55;3.33;;;1.55;;
4428;SDS011;2227;47.810;8.810;2022-08-21T18:47:27;2.38;;;1.23;;
4428;SDS011;2227;47.810;8.810;2022-08-21T18:50:05;2.58;;;1.48;;
4428;SDS011;2227;47.810;8.810;2022-08-21T18:52:36;3.30;;;1.40;;
4428;SDS011;2227;47.810;8.810;2022-08-21T18:55:18;3.33;;;1.40;;
4428;SDS011;2227;47.810;8.810;2022-08-21T18:57:46;2.53;;;1.50;;
4428;SDS011;2227;47.810;8.810;2022-08-21T19:00:17;2.47;;;1.20;;
4428;SDS011;2227;47.810;8.810;2022-08-21T19:05:14;2.35;;;1.30;;
4428;SDS011;2227;47.810;8.810;2022-08-21T19:07:43;3.75;;;1.10;;
4428;SDS011;2227;47.810;8.810;2022-08-21T19:10:11;2.42;;;1.23;;
4428;SDS011;2227;47.810;8.810;2022-08-21T19:12:57;3.78;;;1.15;;
4428;SDS011;2227;47.810;8.810;2022-08-21T19:15:25;3.45;;;1.30;;
4428;SDS011;2227;47.810;8.810;2022-08-21T19:17:53;2.03;;;1.23;;
4428;SDS011;2227;47.810;8.810;2022-08-21T19:23:03;3.03;;;1.48;;
4428;SDS011;2227;47.810;8.810;2022-08-21T19:25:32;3.35;;;1.20;;
4428;SDS011;2227;47.810;8.810;2022-08-21T19:28:01;2.70;;;1.50;;
4428;SDS011;2227;47.810;8.810;2022-08-21T19:31:02;1.95;;;1.10;;
4428;SDS011;2227;47.810;8.810;2022-08-21T19:33:36;3.22;;;1.52;;
4428;SDS011;2227;47.810;8.810;2022-08-21T19:36:09;4.93;;;1.55;;
4428;SDS011;2227;47.810;8.810;2022-08-21T19:38:37;3.53;;;1.77;;
4428;SDS011;2227;47.810;8.810;2022-08-21T19:41:05;4.38;;;2.30;;
4428;SDS011;2227;47.810;8.810;2022-08-21T19:43:38;3.58;;;1.92;;
4428;SDS011;2227;47.810;8.810;2022-08-21T19:46:10;4.00;;;1.88;;
4428;SDS011;2227;47.810;8.810;2022-08-21T19:48:42;3.10;;;1.30;;
4428;SDS011;2227;47.810;8.810;2022-08-21T19:51:12;4.15;;;1.50;;
4428;SDS011;2227;47.810;8.810;2022-08-21T19:53:39;1.92;;;1.17;;
4428;SDS011;2227;47.810;8.810;2022-08-21T19:56:05;4.18;;;1.70;;
4428;SDS011;2227;47.810;8.810;2022-08-21T19:58:37;2.08;;;1.38;;
4428;SDS011;2227;47.810;8.810;2022-08-21T20:01:07;2.85;;;1.58;;
4428;SDS011;2227;47.810;8.810;2022-08-21T20:03:42;4.53;;;1.80;;
4428;SDS011;2227;47.810;8.810;2022-08-21T20:06:19;3.03;;;1.77;;
4428;SDS011;2227;47.810;8.810;2022-08-21T20:08:49;8.15;;;2.15;;
4428;SDS011;2227;47.810;8.810;2022-08-21T20:11:18;3.55;;;2.00;;
4428;SDS011;2227;47.810;8.810;2022-08-21T20:13:52;3.75;;;1.98;;
4428;SDS011;2227;47.810;8.810;2022-08-21T20:16:20;4.10;;;2.10;;
4428;SDS011;2227;47.810;8.810;2022-08-21T20:18:47;2.97;;;2.03;;
4428;SDS011;2227;47.810;8.810;2022-08-21T20:21:14;4.63;;;2.28;;
4428;SDS011;2227;47.810;8.810;2022-08-21T20:23:41;3.38;;;1.80;;
4428;SDS011;2227;47.810;8.810;2022-08-21T20:26:14;4.93;;;1.77;;
4428;SDS011;2227;47.810;8.810;2022-08-21T20:28:42;3.08;;;1.77;;
4428;SDS011;2227;47.810;8.810;2022-08-21T20:31:09;4.22;;;1.95;;
4428;SDS011;2227;47.810;8.810;2022-08-21T20:33:39;4.50;;;2.47;;
4428;SDS011;2227;47.810;8.810;2022-08-21T20:36:08;4.05;;;1.70;;
4428;SDS011;2227;47.810;8.810;2022-08-21T20:38:35;3.50;;;1.95;;
4428;SDS011;2227;47.810;8.810;2022-08-21T20:41:03;3.92;;;2.13;;
4428;SDS011;2227;47.810;8.810;2022-08-21T20:43:47;3.88;;;2.17;;
4428;SDS011;2227;47.810;8.810;2022-08-21T20:46:15;7.10;;;2.05;;
4428;SDS011;2227;47.810;8.810;2022-08-21T20:48:46;3.92;;;1.73;;
4428;SDS011;2227;47.810;8.810;2022-08-21T21:04:52;6.43;;;2.00;;
4428;SDS011;2227;47.810;8.810;2022-08-21T21:07:36;4.20;;;1.90;;
4428;SDS011;2227;47.810;8.810;2022-08-21T21:10:24;3.60;;;1.92;;
4428;SDS011;2227;47.810;8.810;2022-08-21T21:12:57;4.22;;;1.80;;
4428;SDS011;2227;47.810;8.810;2022-08-21T21:15:29;3.08;;;1.70;;
4428;SDS011;2227;47.810;8.810;2022-08-21T21:18:04;3.63;;;2.00;;
4428;SDS011;2227;47.810;8.810;2022-08-21T21:20:49;3.53;;;1.65;;
4428;SDS011;2227;47.810;8.810;2022-08-21T21:23:23;3.17;;;1.63;;
4428;SDS011;2227;47.810;8.810;2022-08-21T21:29:01;2.92;;;1.60;;
4428;SDS011;2227;47.810;8.810;2022-08-21T21:31:46;4.63;;;2.00;;
4428;SDS011;2227;47.810;8.810;2022-08-21T21:34:14;2.92;;;1.83;;
4428;SDS011;2227;47.810;8.810;2022-08-21T21:39:36;3.65;;;1.80;;
4428;SDS011;2227;47.810;8.810;2022-08-21T21:47:40;3.65;;;1.90;;
4428;SDS011;2227;47.810;8.810;2022-08-21T21:59:41;4.13;;;1.90;;
4428;SDS011;2227;47.810;8.810;2022-08-21T22:08:08;3.38;;;1.98;;
4428;SDS011;2227;47.810;8.810;2022-08-21T22:10:59;3.30;;;1.83;;
4428;SDS011;2227;47.810;8.810;2022-08-21T22:13:41;3.03;;;1.60;;
4428;SDS011;2227;47.810;8.810;2022-08-21T22:16:21;3.15;;;1.98;;
4428;SDS011;2227;47.810;8.810;2022-08-21T22:18:53;3.50;;;2.00;;
4428;SDS011;2227;47.810;8.810;2022-08-21T22:21:28;3.67;;;1.73;;
4428;SDS011;2227;47.810;8.810;2022-08-21T22:24:02;3.35;;;1.83;;
4428;SDS011;2227;47.810;8.810;2022-08-21T22:26:44;2.88;;;1.90;;
4428;SDS011;2227;47.810;8.810;2022-08-21T22:29:16;3.65;;;2.08;;
4428;SDS011;2227;47.810;8.810;2022-08-21T22:32:05;3.47;;;2.03;;
4428;SDS011;2227;47.810;8.810;2022-08-21T22:34:33;3.53;;;2.38;;
4428;SDS011;2227;47.810;8.810;2022-08-21T22:37:01;4.30;;;2.15;;
4428;SDS011;2227;47.810;8.810;2022-08-21T22:39:41;3.58;;;2.10;;
4428;SDS011;2227;47.810;8.810;2022-08-21T22:42:22;4.32;;;1.90;;
4428;SDS011;2227;47.810;8.810;2022-08-21T22:44:51;4.28;;;2.13;;